Saint Just, United Kingdom
Current Conditions -  °F | °C
As of 3:50 AM on Thursday 29 Jan 2015 (Local Time) from EGDR Reporting Station
Broken Clouds Broken Clouds  
Wind Chill: 34°   Ceiling: 5000
Heat Index: 43°   Visibility: 6mi
Dew Point: 37°   Wind: 22mph
Humidity: 81%   Direction: 270°W
Pressure: 29.53"   Gusts: NA
Location:  50.12°N, 5.7°W
Report Text: EGDR 290350Z AUTO 27019KT 9999 // BKN050/// BKN110/// 06/03 Q1000
Loading
Personal Weather Stations






























Interactive Weather Map New forecast layout! Learn more

10-Day Weather Forecast

Advertisements
Track Severe Weather on mobile